sensor_id;sensor_type;location;lat;lon;timestamp;P1;durP1;ratioP1;P2;durP2;ratioP2
15952;SDS011;8075;47.766;8.846;2023-06-10T00:02:07;3.78;;;3.47;;
15952;SDS011;8075;47.766;8.846;2023-06-10T00:04:33;3.65;;;3.35;;
15952;SDS011;8075;47.766;8.846;2023-06-10T00:07:02;3.95;;;3.58;;
15952;SDS011;8075;47.766;8.846;2023-06-10T00:09:28;3.60;;;3.30;;
15952;SDS011;8075;47.766;8.846;2023-06-10T00:11:54;3.70;;;3.40;;
15952;SDS011;8075;47.766;8.846;2023-06-10T00:14:21;4.20;;;3.90;;
15952;SDS011;8075;47.766;8.846;2023-06-10T00:16:47;3.80;;;3.50;;
15952;SDS011;8075;47.766;8.846;2023-06-10T00:19:13;3.70;;;3.50;;
15952;SDS011;8075;47.766;8.846;2023-06-10T00:21:40;4.20;;;3.80;;
15952;SDS011;8075;47.766;8.846;2023-06-10T00:24:07;4.10;;;3.80;;
15952;SDS011;8075;47.766;8.846;2023-06-10T00:26:42;3.85;;;3.58;;
15952;SDS011;8075;47.766;8.846;2023-06-10T00:29:08;4.10;;;3.80;;
15952;SDS011;8075;47.766;8.846;2023-06-10T00:31:35;3.88;;;3.58;;
15952;SDS011;8075;47.766;8.846;2023-06-10T00:34:01;4.07;;;3.58;;
15952;SDS011;8075;47.766;8.846;2023-06-10T00:36:27;4.25;;;3.95;;
15952;SDS011;8075;47.766;8.846;2023-06-10T00:38:53;4.13;;;3.83;;
15952;SDS011;8075;47.766;8.846;2023-06-10T00:41:19;4.40;;;4.10;;
15952;SDS011;8075;47.766;8.846;2023-06-10T00:43:45;4.20;;;3.72;;
15952;SDS011;8075;47.766;8.846;2023-06-10T00:46:11;3.88;;;3.58;;
15952;SDS011;8075;47.766;8.846;2023-06-10T00:48:39;4.10;;;3.80;;
15952;SDS011;8075;47.766;8.846;2023-06-10T00:51:06;4.15;;;3.85;;
15952;SDS011;8075;47.766;8.846;2023-06-10T00:53:34;3.92;;;3.63;;
15952;SDS011;8075;47.766;8.846;2023-06-10T00:56:00;4.00;;;3.70;;
15952;SDS011;8075;47.766;8.846;2023-06-10T00:58:26;4.57;;;4.18;;
15952;SDS011;8075;47.766;8.846;2023-06-10T01:00:52;4.30;;;4.00;;
15952;SDS011;8075;47.766;8.846;2023-06-10T01:03:18;3.92;;;3.63;;
15952;SDS011;8075;47.766;8.846;2023-06-10T01:05:46;4.35;;;4.00;;
15952;SDS011;8075;47.766;8.846;2023-06-10T01:10:47;4.32;;;3.92;;
15952;SDS011;8075;47.766;8.846;2023-06-10T01:13:15;3.95;;;3.65;;
15952;SDS011;8075;47.766;8.846;2023-06-10T01:15:41;4.25;;;3.88;;
15952;SDS011;8075;47.766;8.846;2023-06-10T01:18:08;4.40;;;4.00;;
15952;SDS011;8075;47.766;8.846;2023-06-10T01:20:35;4.32;;;4.03;;
15952;SDS011;8075;47.766;8.846;2023-06-10T01:23:05;4.50;;;4.20;;
15952;SDS011;8075;47.766;8.846;2023-06-10T01:25:31;4.30;;;4.00;;
15952;SDS011;8075;47.766;8.846;2023-06-10T01:30:46;5.05;;;4.65;;
15952;SDS011;8075;47.766;8.846;2023-06-10T01:33:14;3.92;;;3.63;;
15952;SDS011;8075;47.766;8.846;2023-06-10T01:35:41;4.20;;;3.90;;
15952;SDS011;8075;47.766;8.846;2023-06-10T01:38:07;4.57;;;4.20;;
15952;SDS011;8075;47.766;8.846;2023-06-10T01:40:33;4.85;;;4.40;;
15952;SDS011;8075;47.766;8.846;2023-06-10T01:42:59;4.40;;;4.00;;
15952;SDS011;8075;47.766;8.846;2023-06-10T01:45:25;4.85;;;4.55;;
15952;SDS011;8075;47.766;8.846;2023-06-10T01:47:51;4.77;;;4.37;;
15952;SDS011;8075;47.766;8.846;2023-06-10T01:50:17;4.20;;;3.90;;
15952;SDS011;8075;47.766;8.846;2023-06-10T01:52:43;4.60;;;4.30;;
15952;SDS011;8075;47.766;8.846;2023-06-10T01:55:09;4.85;;;4.45;;
15952;SDS011;8075;47.766;8.846;2023-06-10T01:57:35;4.78;;;4.38;;
15952;SDS011;8075;47.766;8.846;2023-06-10T02:00:01;4.28;;;3.97;;
15952;SDS011;8075;47.766;8.846;2023-06-10T02:02:28;4.43;;;4.13;;
15952;SDS011;8075;47.766;8.846;2023-06-10T02:04:54;4.78;;;4.40;;
15952;SDS011;8075;47.766;8.846;2023-06-10T02:07:20;4.70;;;4.40;;
15952;SDS011;8075;47.766;8.846;2023-06-10T02:09:46;4.63;;;4.32;;
15952;SDS011;8075;47.766;8.846;2023-06-10T02:12:12;4.68;;;4.30;;
15952;SDS011;8075;47.766;8.846;2023-06-10T02:14:38;4.73;;;4.43;;
15952;SDS011;8075;47.766;8.846;2023-06-10T02:17:04;5.07;;;4.57;;
15952;SDS011;8075;47.766;8.846;2023-06-10T02:19:30;5.00;;;4.60;;
15952;SDS011;8075;47.766;8.846;2023-06-10T02:21:56;5.45;;;5.05;;
15952;SDS011;8075;47.766;8.846;2023-06-10T02:24:22;4.60;;;4.30;;
15952;SDS011;8075;47.766;8.846;2023-06-10T02:26:48;5.10;;;4.70;;
15952;SDS011;8075;47.766;8.846;2023-06-10T02:29:15;5.00;;;4.65;;
15952;SDS011;8075;47.766;8.846;2023-06-10T02:31:41;5.10;;;4.70;;
15952;SDS011;8075;47.766;8.846;2023-06-10T02:34:07;5.43;;;4.90;;
15952;SDS011;8075;47.766;8.846;2023-06-10T02:36:33;5.45;;;5.10;;
15952;SDS011;8075;47.766;8.846;2023-06-10T02:39:00;5.32;;;4.93;;
15952;SDS011;8075;47.766;8.846;2023-06-10T02:41:27;5.20;;;4.90;;
15952;SDS011;8075;47.766;8.846;2023-06-10T02:43:53;5.47;;;5.05;;
15952;SDS011;8075;47.766;8.846;2023-06-10T02:46:19;5.20;;;4.80;;
15952;SDS011;8075;47.766;8.846;2023-06-10T02:48:46;5.03;;;4.63;;
15952;SDS011;8075;47.766;8.846;2023-06-10T02:51:14;5.15;;;4.85;;
15952;SDS011;8075;47.766;8.846;2023-06-10T02:53:40;5.43;;;5.03;;
15952;SDS011;8075;47.766;8.846;2023-06-10T02:56:06;5.50;;;5.10;;
15952;SDS011;8075;47.766;8.846;2023-06-10T02:58:32;5.05;;;4.65;;
15952;SDS011;8075;47.766;8.846;2023-06-10T03:00:58;5.03;;;4.72;;
15952;SDS011;8075;47.766;8.846;2023-06-10T03:03:24;5.22;;;4.82;;
15952;SDS011;8075;47.766;8.846;2023-06-10T03:05:50;5.35;;;4.97;;
15952;SDS011;8075;47.766;8.846;2023-06-10T03:08:16;5.10;;;4.70;;
15952;SDS011;8075;47.766;8.846;2023-06-10T03:10:42;5.40;;;4.90;;
15952;SDS011;8075;47.766;8.846;2023-06-10T03:13:08;6.03;;;5.47;;
15952;SDS011;8075;47.766;8.846;2023-06-10T03:15:35;5.40;;;5.07;;
15952;SDS011;8075;47.766;8.846;2023-06-10T03:18:01;7.75;;;5.60;;
15952;SDS011;8075;47.766;8.846;2023-06-10T03:20:27;8.82;;;5.45;;
15952;SDS011;8075;47.766;8.846;2023-06-10T03:22:54;7.38;;;5.47;;
15952;SDS011;8075;47.766;8.846;2023-06-10T03:25:20;5.03;;;4.68;;
15952;SDS011;8075;47.766;8.846;2023-06-10T03:27:46;5.45;;;4.95;;
15952;SDS011;8075;47.766;8.846;2023-06-10T03:30:13;6.03;;;5.43;;
15952;SDS011;8075;47.766;8.846;2023-06-10T03:32:39;5.40;;;4.90;;
15952;SDS011;8075;47.766;8.846;2023-06-10T03:35:06;5.70;;;5.20;;
15952;SDS011;8075;47.766;8.846;2023-06-10T03:37:32;5.60;;;5.20;;
15952;SDS011;8075;47.766;8.846;2023-06-10T03:39:58;5.65;;;5.25;;
15952;SDS011;8075;47.766;8.846;2023-06-10T03:42:24;5.22;;;4.93;;
15952;SDS011;8075;47.766;8.846;2023-06-10T03:44:50;5.97;;;5.47;;
15952;SDS011;8075;47.766;8.846;2023-06-10T03:47:16;5.50;;;5.10;;
15952;SDS011;8075;47.766;8.846;2023-06-10T03:49:42;5.57;;;5.18;;
15952;SDS011;8075;47.766;8.846;2023-06-10T03:52:08;5.82;;;5.32;;
15952;SDS011;8075;47.766;8.846;2023-06-10T03:54:34;5.88;;;5.47;;
15952;SDS011;8075;47.766;8.846;2023-06-10T03:57:00;5.88;;;5.38;;
15952;SDS011;8075;47.766;8.846;2023-06-10T03:59:27;5.72;;;5.25;;
15952;SDS011;8075;47.766;8.846;2023-06-10T04:01:53;6.03;;;5.53;;
15952;SDS011;8075;47.766;8.846;2023-06-10T04:04:19;5.90;;;5.40;;
15952;SDS011;8075;47.766;8.846;2023-06-10T04:06:46;5.88;;;5.47;;
15952;SDS011;8075;47.766;8.846;2023-06-10T04:09:13;6.30;;;5.78;;
15952;SDS011;8075;47.766;8.846;2023-06-10T04:11:39;6.68;;;6.18;;
15952;SDS011;8075;47.766;8.846;2023-06-10T04:14:05;6.47;;;5.97;;
15952;SDS011;8075;47.766;8.846;2023-06-10T04:16:31;6.67;;;6.17;;
15952;SDS011;8075;47.766;8.846;2023-06-10T04:18:57;6.80;;;6.30;;
15952;SDS011;8075;47.766;8.846;2023-06-10T04:21:23;6.50;;;5.90;;
15952;SDS011;8075;47.766;8.846;2023-06-10T04:23:49;6.40;;;5.90;;
15952;SDS011;8075;47.766;8.846;2023-06-10T04:26:16;7.18;;;6.47;;
15952;SDS011;8075;47.766;8.846;2023-06-10T04:28:44;6.30;;;5.90;;
15952;SDS011;8075;47.766;8.846;2023-06-10T04:31:10;6.80;;;6.32;;
15952;SDS011;8075;47.766;8.846;2023-06-10T04:33:36;6.10;;;5.70;;
15952;SDS011;8075;47.766;8.846;2023-06-10T04:36:02;6.63;;;6.13;;
15952;SDS011;8075;47.766;8.846;2023-06-10T04:38:29;6.18;;;5.68;;
15952;SDS011;8075;47.766;8.846;2023-06-10T04:40:56;6.25;;;5.75;;
15952;SDS011;8075;47.766;8.846;2023-06-10T04:43:22;6.53;;;5.93;;
15952;SDS011;8075;47.766;8.846;2023-06-10T04:45:48;6.37;;;5.87;;
15952;SDS011;8075;47.766;8.846;2023-06-10T04:48:14;6.35;;;5.85;;
15952;SDS011;8075;47.766;8.846;2023-06-10T04:50:40;6.40;;;5.55;;
15952;SDS011;8075;47.766;8.846;2023-06-10T04:53:06;6.43;;;5.93;;
15952;SDS011;8075;47.766;8.846;2023-06-10T04:55:32;6.32;;;5.82;;
15952;SDS011;8075;47.766;8.846;2023-06-10T04:58:01;6.00;;;5.60;;
15952;SDS011;8075;47.766;8.846;2023-06-10T05:00:27;5.85;;;5.45;;
15952;SDS011;8075;47.766;8.846;2023-06-10T05:02:53;6.95;;;5.57;;
15952;SDS011;8075;47.766;8.846;2023-06-10T05:05:21;6.20;;;5.80;;
15952;SDS011;8075;47.766;8.846;2023-06-10T05:07:47;6.50;;;6.05;;
15952;SDS011;8075;47.766;8.846;2023-06-10T05:10:12;5.82;;;5.43;;
15952;SDS011;8075;47.766;8.846;2023-06-10T05:12:39;6.18;;;5.78;;
15952;SDS011;8075;47.766;8.846;2023-06-10T05:15:06;7.00;;;6.30;;
15952;SDS011;8075;47.766;8.846;2023-06-10T05:17:32;6.22;;;5.82;;
15952;SDS011;8075;47.766;8.846;2023-06-10T05:19:59;5.75;;;5.32;;
15952;SDS011;8075;47.766;8.846;2023-06-10T05:22:25;6.35;;;5.95;;
15952;SDS011;8075;47.766;8.846;2023-06-10T05:24:52;5.93;;;5.53;;
15952;SDS011;8075;47.766;8.846;2023-06-10T05:27:18;6.50;;;6.07;;
15952;SDS011;8075;47.766;8.846;2023-06-10T05:29:44;6.55;;;5.95;;
15952;SDS011;8075;47.766;8.846;2023-06-10T05:32:13;6.23;;;5.83;;
15952;SDS011;8075;47.766;8.846;2023-06-10T05:34:39;5.82;;;5.43;;
15952;SDS011;8075;47.766;8.846;2023-06-10T05:37:05;6.18;;;5.68;;
15952;SDS011;8075;47.766;8.846;2023-06-10T05:39:31;6.00;;;5.60;;
15952;SDS011;8075;47.766;8.846;2023-06-10T05:41:57;6.47;;;5.90;;
15952;SDS011;8075;47.766;8.846;2023-06-10T05:44:24;5.82;;;5.43;;
15952;SDS011;8075;47.766;8.846;2023-06-10T05:46:50;6.23;;;5.80;;
15952;SDS011;8075;47.766;8.846;2023-06-10T05:49:16;5.80;;;5.40;;
15952;SDS011;8075;47.766;8.846;2023-06-10T05:51:42;6.18;;;5.78;;
15952;SDS011;8075;47.766;8.846;2023-06-10T05:54:08;6.05;;;5.65;;
15952;SDS011;8075;47.766;8.846;2023-06-10T05:56:34;6.97;;;6.45;;
15952;SDS011;8075;47.766;8.846;2023-06-10T05:59:00;6.07;;;5.57;;
15952;SDS011;8075;47.766;8.846;2023-06-10T06:01:26;6.38;;;5.88;;
15952;SDS011;8075;47.766;8.846;2023-06-10T06:03:52;6.13;;;5.63;;
15952;SDS011;8075;47.766;8.846;2023-06-10T06:06:18;6.73;;;6.20;;
15952;SDS011;8075;47.766;8.846;2023-06-10T06:08:45;5.97;;;5.57;;
15952;SDS011;8075;47.766;8.846;2023-06-10T06:11:11;6.70;;;6.00;;
15952;SDS011;8075;47.766;8.846;2023-06-10T06:13:38;6.72;;;6.25;;
15952;SDS011;8075;47.766;8.846;2023-06-10T06:16:04;6.40;;;5.90;;
15952;SDS011;8075;47.766;8.846;2023-06-10T06:18:30;7.10;;;6.50;;
15952;SDS011;8075;47.766;8.846;2023-06-10T06:20:56;7.37;;;6.77;;
15952;SDS011;8075;47.766;8.846;2023-06-10T06:23:22;6.87;;;6.37;;
15952;SDS011;8075;47.766;8.846;2023-06-10T06:25:48;7.45;;;6.95;;
15952;SDS011;8075;47.766;8.846;2023-06-10T06:28:14;6.45;;;5.95;;
15952;SDS011;8075;47.766;8.846;2023-06-10T06:30:40;6.40;;;6.00;;
15952;SDS011;8075;47.766;8.846;2023-06-10T06:33:06;6.40;;;5.95;;
15952;SDS011;8075;47.766;8.846;2023-06-10T06:35:33;7.30;;;6.80;;
15952;SDS011;8075;47.766;8.846;2023-06-10T06:37:59;6.80;;;6.20;;
15952;SDS011;8075;47.766;8.846;2023-06-10T06:40:25;7.07;;;6.57;;
15952;SDS011;8075;47.766;8.846;2023-06-10T06:42:51;7.05;;;6.63;;
15952;SDS011;8075;47.766;8.846;2023-06-10T06:45:17;6.35;;;5.85;;
15952;SDS011;8075;47.766;8.846;2023-06-10T06:47:43;7.60;;;7.10;;
15952;SDS011;8075;47.766;8.846;2023-06-10T06:50:09;6.75;;;6.25;;
15952;SDS011;8075;47.766;8.846;2023-06-10T06:52:35;6.83;;;6.33;;
15952;SDS011;8075;47.766;8.846;2023-06-10T06:55:01;6.63;;;6.13;;
15952;SDS011;8075;47.766;8.846;2023-06-10T06:57:27;6.95;;;6.45;;
15952;SDS011;8075;47.766;8.846;2023-06-10T06:59:53;6.90;;;6.40;;
15952;SDS011;8075;47.766;8.846;2023-06-10T07:02:19;6.35;;;5.95;;
15952;SDS011;8075;47.766;8.846;2023-06-10T07:04:45;7.70;;;7.20;;
15952;SDS011;8075;47.766;8.846;2023-06-10T07:07:13;7.10;;;6.60;;
15952;SDS011;8075;47.766;8.846;2023-06-10T07:09:39;7.65;;;6.72;;
15952;SDS011;8075;47.766;8.846;2023-06-10T07:12:06;7.03;;;6.43;;
15952;SDS011;8075;47.766;8.846;2023-06-10T07:14:32;6.50;;;6.10;;
15952;SDS011;8075;47.766;8.846;2023-06-10T07:16:58;7.65;;;7.10;;
15952;SDS011;8075;47.766;8.846;2023-06-10T07:19:24;7.37;;;6.87;;
15952;SDS011;8075;47.766;8.846;2023-06-10T07:21:50;7.18;;;6.70;;
15952;SDS011;8075;47.766;8.846;2023-06-10T07:24:16;7.28;;;6.72;;
15952;SDS011;8075;47.766;8.846;2023-06-10T07:26:42;7.28;;;6.78;;
15952;SDS011;8075;47.766;8.846;2023-06-10T07:29:08;8.15;;;7.55;;
15952;SDS011;8075;47.766;8.846;2023-06-10T07:31:34;7.38;;;6.75;;
15952;SDS011;8075;47.766;8.846;2023-06-10T07:34:00;7.20;;;6.60;;
15952;SDS011;8075;47.766;8.846;2023-06-10T07:36:26;7.07;;;6.47;;
15952;SDS011;8075;47.766;8.846;2023-06-10T07:38:53;7.93;;;7.32;;
15952;SDS011;8075;47.766;8.846;2023-06-10T07:41:20;8.98;;;8.27;;
15952;SDS011;8075;47.766;8.846;2023-06-10T07:43:46;7.63;;;7.13;;
15952;SDS011;8075;47.766;8.846;2023-06-10T07:46:12;7.03;;;6.53;;
15952;SDS011;8075;47.766;8.846;2023-06-10T07:48:38;7.50;;;7.00;;
15952;SDS011;8075;47.766;8.846;2023-06-10T07:51:04;7.47;;;6.97;;
15952;SDS011;8075;47.766;8.846;2023-06-10T07:53:30;7.40;;;6.88;;
15952;SDS011;8075;47.766;8.846;2023-06-10T07:55:56;7.40;;;6.80;;
15952;SDS011;8075;47.766;8.846;2023-06-10T07:58:22;6.72;;;6.32;;
15952;SDS011;8075;47.766;8.846;2023-06-10T08:00:48;9.05;;;6.32;;
15952;SDS011;8075;47.766;8.846;2023-06-10T08:03:14;6.60;;;6.00;;
15952;SDS011;8075;47.766;8.846;2023-06-10T08:05:40;7.18;;;6.70;;
15952;SDS011;8075;47.766;8.846;2023-06-10T08:08:06;6.30;;;5.90;;
15952;SDS011;8075;47.766;8.846;2023-06-10T08:10:32;6.60;;;6.05;;
15952;SDS011;8075;47.766;8.846;2023-06-10T08:12:58;6.50;;;6.00;;
15952;SDS011;8075;47.766;8.846;2023-06-10T08:15:24;6.32;;;5.90;;
15952;SDS011;8075;47.766;8.846;2023-06-10T08:17:50;6.25;;;5.85;;
15952;SDS011;8075;47.766;8.846;2023-06-10T08:20:17;6.38;;;5.97;;
15952;SDS011;8075;47.766;8.846;2023-06-10T08:22:43;6.65;;;6.20;;
15952;SDS011;8075;47.766;8.846;2023-06-10T08:25:09;6.70;;;6.20;;
15952;SDS011;8075;47.766;8.846;2023-06-10T08:27:35;6.30;;;5.90;;
15952;SDS011;8075;47.766;8.846;2023-06-10T08:30:01;6.80;;;6.40;;
15952;SDS011;8075;47.766;8.846;2023-06-10T08:32:27;6.50;;;6.00;;
15952;SDS011;8075;47.766;8.846;2023-06-10T08:34:53;6.43;;;5.93;;
15952;SDS011;8075;47.766;8.846;2023-06-10T08:37:19;7.32;;;6.82;;
15952;SDS011;8075;47.766;8.846;2023-06-10T08:39:45;5.88;;;5.32;;
15952;SDS011;8075;47.766;8.846;2023-06-10T08:44:40;6.57;;;6.18;;
15952;SDS011;8075;47.766;8.846;2023-06-10T08:47:17;6.40;;;5.90;;
15952;SDS011;8075;47.766;8.846;2023-06-10T08:49:43;6.30;;;5.70;;
15952;SDS011;8075;47.766;8.846;2023-06-10T08:52:16;6.35;;;5.85;;
15952;SDS011;8075;47.766;8.846;2023-06-10T08:54:43;6.03;;;5.53;;
15952;SDS011;8075;47.766;8.846;2023-06-10T08:57:11;6.95;;;6.40;;
15952;SDS011;8075;47.766;8.846;2023-06-10T08:59:38;7.10;;;6.60;;
15952;SDS011;8075;47.766;8.846;2023-06-10T09:02:04;7.15;;;6.65;;
15952;SDS011;8075;47.766;8.846;2023-06-10T09:04:30;5.90;;;5.50;;
15952;SDS011;8075;47.766;8.846;2023-06-10T09:06:56;5.97;;;5.53;;
15952;SDS011;8075;47.766;8.846;2023-06-10T09:09:22;6.32;;;5.82;;
15952;SDS011;8075;47.766;8.846;2023-06-10T09:11:49;6.22;;;5.80;;
15952;SDS011;8075;47.766;8.846;2023-06-10T09:14:15;6.00;;;5.60;;
15952;SDS011;8075;47.766;8.846;2023-06-10T09:16:41;6.03;;;5.63;;
15952;SDS011;8075;47.766;8.846;2023-06-10T09:19:07;6.03;;;5.53;;
15952;SDS011;8075;47.766;8.846;2023-06-10T09:21:34;6.23;;;5.73;;
15952;SDS011;8075;47.766;8.846;2023-06-10T09:24:03;6.30;;;5.80;;
15952;SDS011;8075;47.766;8.846;2023-06-10T09:26:29;6.07;;;5.57;;
15952;SDS011;8075;47.766;8.846;2023-06-10T09:29:05;5.68;;;5.18;;
15952;SDS011;8075;47.766;8.846;2023-06-10T09:31:31;5.82;;;5.32;;
15952;SDS011;8075;47.766;8.846;2023-06-10T09:34:05;5.50;;;5.18;;
15952;SDS011;8075;47.766;8.846;2023-06-10T09:36:32;6.15;;;5.75;;
15952;SDS011;8075;47.766;8.846;2023-06-10T09:38:58;5.53;;;5.22;;
15952;SDS011;8075;47.766;8.846;2023-06-10T09:41:42;5.25;;;4.85;;
15952;SDS011;8075;47.766;8.846;2023-06-10T09:44:15;5.63;;;5.22;;
15952;SDS011;8075;47.766;8.846;2023-06-10T09:46:41;5.50;;;5.10;;
15952;SDS011;8075;47.766;8.846;2023-06-10T09:49:07;4.97;;;4.68;;
15952;SDS011;8075;47.766;8.846;2023-06-10T09:51:33;5.72;;;5.25;;
15952;SDS011;8075;47.766;8.846;2023-06-10T09:54:01;5.63;;;5.23;;
15952;SDS011;8075;47.766;8.846;2023-06-10T09:56:37;5.82;;;5.43;;
15952;SDS011;8075;47.766;8.846;2023-06-10T09:59:07;5.38;;;4.97;;
15952;SDS011;8075;47.766;8.846;2023-06-10T10:01:34;5.20;;;4.90;;
15952;SDS011;8075;47.766;8.846;2023-06-10T10:04:00;5.30;;;4.90;;
15952;SDS011;8075;47.766;8.846;2023-06-10T10:06:26;5.40;;;4.90;;
15952;SDS011;8075;47.766;8.846;2023-06-10T10:08:54;5.32;;;4.93;;
15952;SDS011;8075;47.766;8.846;2023-06-10T10:11:21;5.25;;;4.72;;
15952;SDS011;8075;47.766;8.846;2023-06-10T10:13:50;5.40;;;4.90;;
15952;SDS011;8075;47.766;8.846;2023-06-10T10:16:17;5.40;;;4.90;;
15952;SDS011;8075;47.766;8.846;2023-06-10T10:18:49;5.00;;;4.60;;
15952;SDS011;8075;47.766;8.846;2023-06-10T10:21:17;5.07;;;4.78;;
15952;SDS011;8075;47.766;8.846;2023-06-10T10:23:53;5.20;;;4.70;;
15952;SDS011;8075;47.766;8.846;2023-06-10T10:26:20;4.65;;;4.25;;
15952;SDS011;8075;47.766;8.846;2023-06-10T10:28:49;4.93;;;4.60;;
15952;SDS011;8075;47.766;8.846;2023-06-10T10:31:18;4.70;;;4.32;;
15952;SDS011;8075;47.766;8.846;2023-06-10T10:34:00;4.47;;;3.80;;
15952;SDS011;8075;47.766;8.846;2023-06-10T10:36:27;4.47;;;4.18;;
15952;SDS011;8075;47.766;8.846;2023-06-10T10:38:54;4.43;;;4.13;;
15952;SDS011;8075;47.766;8.846;2023-06-10T10:41:20;4.60;;;4.13;;
15952;SDS011;8075;47.766;8.846;2023-06-10T10:43:46;4.28;;;4.00;;
15952;SDS011;8075;47.766;8.846;2023-06-10T10:46:13;4.68;;;4.28;;
15952;SDS011;8075;47.766;8.846;2023-06-10T10:48:40;4.50;;;4.10;;
15952;SDS011;8075;47.766;8.846;2023-06-10T10:51:07;4.32;;;4.03;;
15952;SDS011;8075;47.766;8.846;2023-06-10T10:53:33;4.50;;;4.20;;
15952;SDS011;8075;47.766;8.846;2023-06-10T10:56:00;4.53;;;4.20;;
15952;SDS011;8075;47.766;8.846;2023-06-10T10:58:30;4.53;;;4.22;;
15952;SDS011;8075;47.766;8.846;2023-06-10T11:00:57;4.30;;;4.00;;
15952;SDS011;8075;47.766;8.846;2023-06-10T11:03:27;4.57;;;3.90;;
15952;SDS011;8075;47.766;8.846;2023-06-10T11:05:53;4.22;;;3.92;;
15952;SDS011;8075;47.766;8.846;2023-06-10T11:10:54;4.32;;;4.03;;
15952;SDS011;8075;47.766;8.846;2023-06-10T11:13:20;4.38;;;4.03;;
15952;SDS011;8075;47.766;8.846;2023-06-10T11:15:47;4.50;;;4.20;;
15952;SDS011;8075;47.766;8.846;2023-06-10T11:18:27;4.53;;;4.20;;
15952;SDS011;8075;47.766;8.846;2023-06-10T11:21:03;4.47;;;4.18;;
15952;SDS011;8075;47.766;8.846;2023-06-10T11:26:11;4.63;;;4.30;;
15952;SDS011;8075;47.766;8.846;2023-06-10T11:29:00;5.07;;;4.20;;
15952;SDS011;8075;47.766;8.846;2023-06-10T11:31:24;4.28;;;3.88;;
15952;SDS011;8075;47.766;8.846;2023-06-10T11:33:56;4.25;;;3.95;;
15952;SDS011;8075;47.766;8.846;2023-06-10T11:36:23;4.13;;;3.92;;
15952;SDS011;8075;47.766;8.846;2023-06-10T11:38:51;4.10;;;3.80;;
15952;SDS011;8075;47.766;8.846;2023-06-10T11:41:19;4.07;;;3.78;;
15952;SDS011;8075;47.766;8.846;2023-06-10T11:43:46;4.00;;;3.70;;
15952;SDS011;8075;47.766;8.846;2023-06-10T11:46:12;3.88;;;3.58;;
15952;SDS011;8075;47.766;8.846;2023-06-10T11:48:38;4.25;;;3.95;;
15952;SDS011;8075;47.766;8.846;2023-06-10T11:51:07;4.13;;;3.83;;
15952;SDS011;8075;47.766;8.846;2023-06-10T11:53:34;3.65;;;3.45;;
15952;SDS011;8075;47.766;8.846;2023-06-10T11:56:00;4.00;;;3.70;;
15952;SDS011;8075;47.766;8.846;2023-06-10T11:58:26;4.13;;;3.80;;
15952;SDS011;8075;47.766;8.846;2023-06-10T12:00:53;4.20;;;3.90;;
15952;SDS011;8075;47.766;8.846;2023-06-10T12:03:21;4.13;;;3.83;;
15952;SDS011;8075;47.766;8.846;2023-06-10T12:08:22;4.20;;;3.90;;
15952;SDS011;8075;47.766;8.846;2023-06-10T12:10:48;3.83;;;3.60;;
15952;SDS011;8075;47.766;8.846;2023-06-10T12:13:15;3.70;;;3.50;;
15952;SDS011;8075;47.766;8.846;2023-06-10T12:15:42;4.10;;;3.80;;
15952;SDS011;8075;47.766;8.846;2023-06-10T12:18:15;4.13;;;3.83;;
15952;SDS011;8075;47.766;8.846;2023-06-10T12:20:41;3.60;;;3.30;;
15952;SDS011;8075;47.766;8.846;2023-06-10T12:23:11;3.95;;;3.67;;
15952;SDS011;8075;47.766;8.846;2023-06-10T12:25:37;3.80;;;3.60;;
15952;SDS011;8075;47.766;8.846;2023-06-10T12:28:03;4.32;;;4.03;;
15952;SDS011;8075;47.766;8.846;2023-06-10T12:30:30;4.05;;;3.67;;
15952;SDS011;8075;47.766;8.846;2023-06-10T12:32:56;3.88;;;3.58;;
15952;SDS011;8075;47.766;8.846;2023-06-10T12:35:23;3.90;;;3.60;;
15952;SDS011;8075;47.766;8.846;2023-06-10T12:37:56;3.53;;;3.33;;
15952;SDS011;8075;47.766;8.846;2023-06-10T12:40:26;4.03;;;3.60;;
15952;SDS011;8075;47.766;8.846;2023-06-10T12:42:53;3.80;;;3.50;;
15952;SDS011;8075;47.766;8.846;2023-06-10T12:45:26;4.40;;;4.00;;
15952;SDS011;8075;47.766;8.846;2023-06-10T12:48:03;4.07;;;3.77;;
15952;SDS011;8075;47.766;8.846;2023-06-10T12:50:29;4.00;;;3.53;;
15952;SDS011;8075;47.766;8.846;2023-06-10T12:52:56;4.03;;;3.72;;
15952;SDS011;8075;47.766;8.846;2023-06-10T12:55:22;3.92;;;3.60;;
15952;SDS011;8075;47.766;8.846;2023-06-10T12:57:51;3.22;;;2.90;;
15952;SDS011;8075;47.766;8.846;2023-06-10T13:00:18;3.25;;;3.03;;
15952;SDS011;8075;47.766;8.846;2023-06-10T13:02:44;3.53;;;3.28;;
15952;SDS011;8075;47.766;8.846;2023-06-10T13:05:10;4.30;;;3.67;;
15952;SDS011;8075;47.766;8.846;2023-06-10T13:07:36;3.77;;;3.57;;
15952;SDS011;8075;47.766;8.846;2023-06-10T13:10:02;3.65;;;3.45;;
15952;SDS011;8075;47.766;8.846;2023-06-10T13:12:28;3.80;;;3.60;;
15952;SDS011;8075;47.766;8.846;2023-06-10T13:14:55;3.13;;;2.92;;
15952;SDS011;8075;47.766;8.846;2023-06-10T13:17:21;3.00;;;2.70;;
15952;SDS011;8075;47.766;8.846;2023-06-10T13:19:47;3.30;;;3.00;;
15952;SDS011;8075;47.766;8.846;2023-06-10T13:22:13;3.10;;;2.90;;
15952;SDS011;8075;47.766;8.846;2023-06-10T13:24:39;3.60;;;3.30;;
15952;SDS011;8075;47.766;8.846;2023-06-10T13:27:06;3.40;;;3.20;;
15952;SDS011;8075;47.766;8.846;2023-06-10T13:29:32;4.20;;;3.80;;
15952;SDS011;8075;47.766;8.846;2023-06-10T13:31:58;3.53;;;3.15;;
15952;SDS011;8075;47.766;8.846;2023-06-10T13:34:24;3.00;;;2.83;;
15952;SDS011;8075;47.766;8.846;2023-06-10T13:36:50;3.33;;;3.03;;
15952;SDS011;8075;47.766;8.846;2023-06-10T13:39:16;2.80;;;2.60;;
15952;SDS011;8075;47.766;8.846;2023-06-10T13:41:42;2.92;;;2.72;;
15952;SDS011;8075;47.766;8.846;2023-06-10T13:44:08;2.60;;;2.50;;
15952;SDS011;8075;47.766;8.846;2023-06-10T13:46:34;3.20;;;2.90;;
15952;SDS011;8075;47.766;8.846;2023-06-10T13:49:00;2.85;;;2.65;;
15952;SDS011;8075;47.766;8.846;2023-06-10T13:51:26;3.30;;;3.00;;
15952;SDS011;8075;47.766;8.846;2023-06-10T13:53:52;3.10;;;2.90;;
15952;SDS011;8075;47.766;8.846;2023-06-10T13:56:18;2.70;;;2.50;;
15952;SDS011;8075;47.766;8.846;2023-06-10T13:58:44;3.10;;;2.90;;
15952;SDS011;8075;47.766;8.846;2023-06-10T14:01:10;3.20;;;2.67;;
15952;SDS011;8075;47.766;8.846;2023-06-10T14:03:36;2.80;;;2.60;;
15952;SDS011;8075;47.766;8.846;2023-06-10T14:06:02;2.50;;;2.40;;
15952;SDS011;8075;47.766;8.846;2023-06-10T14:08:29;2.80;;;2.60;;
15952;SDS011;8075;47.766;8.846;2023-06-10T14:10:54;2.60;;;2.47;;
15952;SDS011;8075;47.766;8.846;2023-06-10T14:13:20;2.80;;;2.60;;
15952;SDS011;8075;47.766;8.846;2023-06-10T14:15:47;2.60;;;2.50;;
15952;SDS011;8075;47.766;8.846;2023-06-10T14:18:13;2.72;;;2.53;;
15952;SDS011;8075;47.766;8.846;2023-06-10T14:20:39;2.40;;;2.30;;
15952;SDS011;8075;47.766;8.846;2023-06-10T14:23:05;3.63;;;2.70;;
15952;SDS011;8075;47.766;8.846;2023-06-10T14:25:31;2.33;;;2.22;;
15952;SDS011;8075;47.766;8.846;2023-06-10T14:27:57;2.28;;;2.17;;
15952;SDS011;8075;47.766;8.846;2023-06-10T14:30:23;2.60;;;2.30;;
15952;SDS011;8075;47.766;8.846;2023-06-10T14:32:49;2.45;;;2.20;;
15952;SDS011;8075;47.766;8.846;2023-06-10T14:35:15;4.47;;;2.40;;
15952;SDS011;8075;47.766;8.846;2023-06-10T14:37:41;2.35;;;2.20;;
15952;SDS011;8075;47.766;8.846;2023-06-10T14:40:07;2.35;;;2.25;;
15952;SDS011;8075;47.766;8.846;2023-06-10T14:42:33;2.40;;;2.30;;
15952;SDS011;8075;47.766;8.846;2023-06-10T14:44:59;2.40;;;2.20;;
15952;SDS011;8075;47.766;8.846;2023-06-10T14:47:26;2.38;;;2.17;;
15952;SDS011;8075;47.766;8.846;2023-06-10T14:49:52;2.50;;;2.10;;
15952;SDS011;8075;47.766;8.846;2023-06-10T14:52:18;2.30;;;2.10;;
15952;SDS011;8075;47.766;8.846;2023-06-10T14:54:44;3.25;;;2.10;;
15952;SDS011;8075;47.766;8.846;2023-06-10T14:57:10;2.20;;;2.10;;
15952;SDS011;8075;47.766;8.846;2023-06-10T14:59:36;2.15;;;1.95;;
15952;SDS011;8075;47.766;8.846;2023-06-10T15:02:02;2.22;;;2.13;;
15952;SDS011;8075;47.766;8.846;2023-06-10T15:04:28;2.22;;;2.13;;
15952;SDS011;8075;47.766;8.846;2023-06-10T15:06:54;2.10;;;2.00;;
15952;SDS011;8075;47.766;8.846;2023-06-10T15:09:20;2.10;;;1.90;;
15952;SDS011;8075;47.766;8.846;2023-06-10T15:11:46;2.20;;;2.10;;
15952;SDS011;8075;47.766;8.846;2023-06-10T15:14:12;2.00;;;1.90;;